createdAt,value
2019-04-30T00:00:27.000Z,281.85
2019-04-30T00:02:35.000Z,281.87
2019-04-30T00:04:03.000Z,281.86
2019-04-30T00:06:06.000Z,281.84
2019-04-30T00:07:31.000Z,281.81
2019-04-30T00:09:33.000Z,281.79
2019-04-30T00:10:58.000Z,281.77
2019-04-30T00:13:02.000Z,281.76
2019-04-30T00:14:24.000Z,281.78
2019-04-30T00:16:30.000Z,281.79
2019-04-30T00:18:02.000Z,281.75
2019-04-30T00:20:07.000Z,281.72
2019-04-30T00:21:30.000Z,281.7
2019-04-30T00:23:34.000Z,281.72
2019-04-30T00:24:58.000Z,281.68
2019-04-30T00:26:59.000Z,281.65
2019-04-30T00:28:26.000Z,281.64
2019-04-30T00:30:29.000Z,281.62
2019-04-30T00:31:51.000Z,281.6
2019-04-30T00:33:53.000Z,281.56
2019-04-30T00:35:24.000Z,281.55
2019-04-30T00:37:27.000Z,281.57
2019-04-30T00:38:56.000Z,281.54
2019-04-30T00:40:57.000Z,281.53
2019-04-30T00:42:28.000Z,281.54
2019-04-30T00:44:29.000Z,281.52
2019-04-30T00:45:54.000Z,281.52
2019-04-30T00:48:02.000Z,281.51
2019-04-30T00:49:26.000Z,281.52
2019-04-30T00:51:34.000Z,281.51
2019-04-30T00:52:59.000Z,281.48
2019-04-30T00:55:00.000Z,281.46
2019-04-30T00:56:33.000Z,281.45
2019-04-30T00:58:37.000Z,281.44
2019-04-30T01:00:05.000Z,281.45
2019-04-30T01:02:09.000Z,281.45
2019-04-30T01:03:36.000Z,281.46
2019-04-30T01:05:46.000Z,281.46
2019-04-30T01:07:15.000Z,281.46
2019-04-30T01:09:22.000Z,281.46
2019-04-30T01:10:48.000Z,281.46
2019-04-30T01:12:51.000Z,281.47
2019-04-30T01:14:19.000Z,281.48
2019-04-30T01:16:39.000Z,281.48
2019-04-30T01:18:06.000Z,281.5
2019-04-30T01:20:13.000Z,281.49
2019-04-30T01:21:42.000Z,281.5
2019-04-30T01:23:51.000Z,281.5
2019-04-30T01:25:20.000Z,281.49
2019-04-30T01:27:24.000Z,281.48
2019-04-30T01:28:49.000Z,281.47
2019-04-30T01:30:53.000Z,281.47
2019-04-30T01:32:26.000Z,281.46
2019-04-30T01:34:33.000Z,281.46
2019-04-30T01:36:03.000Z,281.44
2019-04-30T01:38:19.000Z,281.43
2019-04-30T01:39:44.000Z,281.39
2019-04-30T01:41:51.000Z,281.39
2019-04-30T01:43:22.000Z,281.38
2019-04-30T01:45:38.000Z,281.38
2019-04-30T01:47:01.000Z,281.38
2019-04-30T01:49:06.000Z,281.38
2019-04-30T01:50:38.000Z,281.37
2019-04-30T01:52:48.000Z,281.37
2019-04-30T01:54:17.000Z,281.36
2019-04-30T01:56:32.000Z,281.35
2019-04-30T01:57:59.000Z,281.34
2019-04-30T02:00:04.000Z,281.32
2019-04-30T02:01:31.000Z,281.32
2019-04-30T02:03:34.000Z,281.32
2019-04-30T02:05:01.000Z,281.34
2019-04-30T02:07:11.000Z,281.32
2019-04-30T02:08:41.000Z,281.31
2019-04-30T02:10:50.000Z,281.33
2019-04-30T02:12:22.000Z,281.32
2019-04-30T02:14:27.000Z,281.31
2019-04-30T02:15:56.000Z,281.31
2019-04-30T02:18:08.000Z,281.32
2019-04-30T02:19:41.000Z,281.34
2019-04-30T02:21:50.000Z,281.34
2019-04-30T02:23:23.000Z,281.33
2019-04-30T02:25:34.000Z,281.34
2019-04-30T02:27:04.000Z,281.35
2019-04-30T02:29:10.000Z,281.34
2019-04-30T02:30:35.000Z,281.34
2019-04-30T02:32:45.000Z,281.34
2019-04-30T02:34:13.000Z,281.34
2019-04-30T02:36:22.000Z,281.34
2019-04-30T02:37:44.000Z,281.34
2019-04-30T02:40:01.000Z,281.33
2019-04-30T02:41:33.000Z,281.34
2019-04-30T02:43:40.000Z,281.33
2019-04-30T02:45:08.000Z,281.3
2019-04-30T02:47:15.000Z,281.29
2019-04-30T02:48:42.000Z,281.26
2019-04-30T02:50:56.000Z,281.22
2019-04-30T02:52:30.000Z,281.16
2019-04-30T02:54:43.000Z,281.1
2019-04-30T02:56:12.000Z,281.04
2019-04-30T02:59:55.000Z,280.99
2019-04-30T03:06:13.000Z,280.92
2019-04-30T03:07:35.000Z,280.95
2019-04-30T03:09:36.000Z,280.97
2019-04-30T03:10:58.000Z,281
2019-04-30T03:13:00.000Z,281.01
2019-04-30T03:14:22.000Z,281.03
2019-04-30T03:16:23.000Z,281.04
2019-04-30T03:17:45.000Z,281.06
2019-04-30T03:19:47.000Z,281.07
2019-04-30T03:21:12.000Z,281.07
2019-04-30T03:23:12.000Z,281.07
2019-04-30T03:24:35.000Z,281.05
2019-04-30T03:26:36.000Z,281.01
2019-04-30T03:27:58.000Z,280.97
2019-04-30T03:30:02.000Z,280.92
2019-04-30T03:31:24.000Z,280.87
2019-04-30T03:33:25.000Z,280.79
2019-04-30T03:34:48.000Z,280.75
2019-04-30T03:36:52.000Z,280.71
2019-04-30T03:38:15.000Z,280.68
2019-04-30T03:40:17.000Z,280.6
2019-04-30T03:41:42.000Z,280.54
2019-04-30T03:43:42.000Z,280.49
2019-04-30T03:45:06.000Z,280.44
2019-04-30T03:47:07.000Z,280.37
2019-04-30T03:48:32.000Z,280.35
2019-04-30T03:50:33.000Z,280.28
2019-04-30T03:52:17.000Z,280.23
2019-04-30T03:54:20.000Z,280.18
2019-04-30T03:55:42.000Z,280.11
2019-04-30T03:57:45.000Z,280.1
2019-04-30T03:59:07.000Z,280.12
2019-04-30T04:01:13.000Z,280.07
2019-04-30T04:02:35.000Z,279.98
2019-04-30T04:04:36.000Z,279.92
2019-04-30T04:05:59.000Z,279.9
2019-04-30T04:08:00.000Z,279.91
2019-04-30T04:09:22.000Z,279.93
2019-04-30T04:11:25.000Z,279.9
2019-04-30T04:12:47.000Z,279.85
2019-04-30T04:14:50.000Z,279.78
2019-04-30T04:16:14.000Z,279.78
2019-04-30T04:18:16.000Z,279.74
2019-04-30T04:19:38.000Z,279.61
2019-04-30T04:21:40.000Z,279.55
2019-04-30T04:23:02.000Z,279.53
2019-04-30T04:25:06.000Z,279.5
2019-04-30T04:26:35.000Z,279.47
2019-04-30T04:28:36.000Z,279.42
2019-04-30T04:30:04.000Z,279.37
2019-04-30T04:32:06.000Z,279.35
2019-04-30T04:33:31.000Z,279.32
2019-04-30T04:35:34.000Z,279.35
2019-04-30T04:36:56.000Z,279.36
2019-04-30T04:39:00.000Z,279.34
2019-04-30T04:40:22.000Z,279.35
2019-04-30T04:42:23.000Z,279.33
2019-04-30T04:43:47.000Z,279.35
2019-04-30T04:45:51.000Z,279.32
2019-04-30T04:47:14.000Z,279.36
2019-04-30T04:50:54.000Z,279.33
2019-04-30T04:51:27.000Z,279.33
2019-04-30T04:53:03.000Z,279.31
2019-04-30T04:55:05.000Z,279.36
2019-04-30T04:56:27.000Z,279.39
2019-04-30T04:58:33.000Z,279.41
2019-04-30T04:59:59.000Z,279.42
2019-04-30T05:02:10.000Z,279.46
2019-04-30T05:03:33.000Z,279.5
2019-04-30T05:05:38.000Z,279.52
2019-04-30T05:07:05.000Z,279.58
2019-04-30T05:09:08.000Z,279.63
2019-04-30T05:10:36.000Z,279.68
2019-04-30T05:12:39.000Z,279.71
2019-04-30T05:14:02.000Z,279.77
2019-04-30T05:16:05.000Z,279.83
2019-04-30T05:17:27.000Z,279.88
2019-04-30T05:19:36.000Z,279.97
2019-04-30T05:21:01.000Z,280.03
2019-04-30T05:23:06.000Z,280.09
2019-04-30T05:24:29.000Z,280.17
2019-04-30T05:26:33.000Z,280.23
2019-04-30T05:27:57.000Z,280.27
2019-04-30T05:30:05.000Z,280.33
2019-04-30T05:31:29.000Z,280.38
2019-04-30T05:33:32.000Z,280.39
2019-04-30T05:34:56.000Z,280.4
2019-04-30T05:37:05.000Z,280.46
2019-04-30T05:38:33.000Z,280.53
2019-04-30T05:40:39.000Z,280.54
2019-04-30T05:42:08.000Z,280.6
2019-04-30T05:44:11.000Z,280.63
2019-04-30T05:45:36.000Z,280.69
2019-04-30T05:47:43.000Z,280.79
2019-04-30T05:49:06.000Z,280.82
2019-04-30T05:51:11.000Z,280.82
2019-04-30T05:52:34.000Z,280.87
2019-04-30T05:54:42.000Z,280.98
2019-04-30T05:56:06.000Z,280.98
2019-04-30T05:58:14.000Z,280.99
2019-04-30T05:59:41.000Z,281.03
2019-04-30T06:01:44.000Z,281.09
2019-04-30T06:03:14.000Z,281.07
2019-04-30T06:05:33.000Z,281.15
2019-04-30T06:07:01.000Z,281.18
2019-04-30T06:09:03.000Z,281.21
2019-04-30T06:10:36.000Z,281.25
2019-04-30T06:12:39.000Z,281.23
2019-04-30T06:14:04.000Z,281.35
2019-04-30T06:16:12.000Z,281.4
2019-04-30T06:17:38.000Z,281.26
2019-04-30T06:19:42.000Z,281.24
2019-04-30T06:21:10.000Z,281.36
2019-04-30T06:23:15.000Z,281.47
2019-04-30T06:24:46.000Z,281.54
2019-04-30T06:26:54.000Z,281.66
2019-04-30T06:28:23.000Z,281.6
2019-04-30T06:30:27.000Z,281.69
2019-04-30T06:31:55.000Z,281.74
2019-04-30T06:34:03.000Z,281.75
2019-04-30T06:35:28.000Z,281.8
2019-04-30T06:37:33.000Z,281.9
2019-04-30T06:39:01.000Z,281.98
2019-04-30T06:41:05.000Z,282.02
2019-04-30T06:42:34.000Z,282.11
2019-04-30T06:44:41.000Z,282.21
2019-04-30T06:46:10.000Z,282.27
2019-04-30T06:48:19.000Z,282.32
2019-04-30T06:49:47.000Z,282.25
2019-04-30T06:51:57.000Z,282.25
2019-04-30T06:53:33.000Z,282.34
2019-04-30T06:55:41.000Z,282.4
2019-04-30T06:57:11.000Z,282.49
2019-04-30T06:59:23.000Z,282.41
2019-04-30T07:00:51.000Z,282.35
2019-04-30T07:02:57.000Z,282.46
2019-04-30T07:04:31.000Z,282.56
2019-04-30T07:06:39.000Z,282.64
2019-04-30T07:08:13.000Z,282.71
2019-04-30T07:10:26.000Z,282.72
2019-04-30T07:11:58.000Z,282.8
2019-04-30T07:14:05.000Z,282.77
2019-04-30T07:15:37.000Z,282.67
2019-04-30T07:17:51.000Z,282.91
2019-04-30T07:19:16.000Z,282.95
2019-04-30T07:21:48.000Z,283.03
2019-04-30T07:23:24.000Z,283.07
2019-04-30T07:25:36.000Z,283.17
2019-04-30T07:27:07.000Z,283.31
2019-04-30T07:29:14.000Z,283.3
2019-04-30T07:30:42.000Z,283.22
2019-04-30T07:32:51.000Z,283.21
2019-04-30T07:34:20.000Z,283.23
2019-04-30T07:36:30.000Z,283.38
2019-04-30T07:38:25.000Z,283.48
2019-04-30T07:40:35.000Z,283.52
2019-04-30T07:42:04.000Z,283.6
2019-04-30T07:44:14.000Z,283.64
2019-04-30T07:46:06.000Z,283.57
2019-04-30T07:48:12.000Z,283.67
2019-04-30T07:49:43.000Z,283.73
2019-04-30T07:52:01.000Z,283.79
2019-04-30T07:53:35.000Z,283.81
2019-04-30T08:00:58.000Z,284.16
2019-04-30T08:02:22.000Z,284.06
2019-04-30T08:04:23.000Z,284.1
2019-04-30T08:05:45.000Z,284.14
2019-04-30T08:07:46.000Z,284.16
2019-04-30T08:09:10.000Z,284.35
2019-04-30T08:11:11.000Z,284.51
2019-04-30T08:12:47.000Z,284.5
2019-04-30T08:14:51.000Z,284.67
2019-04-30T08:16:13.000Z,284.77
2019-04-30T08:18:14.000Z,284.86
2019-04-30T08:19:36.000Z,284.78
2019-04-30T08:21:41.000Z,284.68
2019-04-30T08:23:03.000Z,284.68
2019-04-30T08:25:21.000Z,284.69
2019-04-30T08:26:43.000Z,284.74
2019-04-30T08:28:44.000Z,284.82
2019-04-30T08:30:06.000Z,285.01
2019-04-30T08:32:27.000Z,284.96
2019-04-30T08:33:51.000Z,284.9
2019-04-30T08:35:52.000Z,285.1
2019-04-30T08:37:15.000Z,285.14
2019-04-30T08:39:21.000Z,285.1
2019-04-30T08:40:43.000Z,285.21
2019-04-30T08:42:59.000Z,285.32
2019-04-30T08:44:21.000Z,285.22
2019-04-30T08:46:22.000Z,285.31
2019-04-30T08:47:44.000Z,285.49
2019-04-30T08:49:46.000Z,285.45
2019-04-30T08:51:11.000Z,285.51
2019-04-30T08:53:16.000Z,285.47
2019-04-30T08:54:51.000Z,285.53
2019-04-30T08:56:53.000Z,285.53
2019-04-30T08:58:16.000Z,285.6
2019-04-30T09:00:22.000Z,285.71
2019-04-30T09:01:46.000Z,285.69
2019-04-30T09:03:47.000Z,285.75
2019-04-30T09:05:14.000Z,285.88
2019-04-30T09:07:19.000Z,285.96
2019-04-30T09:08:43.000Z,285.96
2019-04-30T09:10:44.000Z,285.92
2019-04-30T09:12:07.000Z,285.95
2019-04-30T09:14:11.000Z,285.95
2019-04-30T09:15:33.000Z,286.01
2019-04-30T09:17:35.000Z,286
2019-04-30T09:18:58.000Z,286.11
2019-04-30T09:21:00.000Z,286.2
2019-04-30T09:22:28.000Z,286.34
2019-04-30T09:24:31.000Z,286.5
2019-04-30T09:25:54.000Z,286.49
2019-04-30T09:27:55.000Z,286.53
2019-04-30T09:29:19.000Z,286.48
2019-04-30T09:31:20.000Z,286.49
2019-04-30T09:32:42.000Z,286.56
2019-04-30T09:34:44.000Z,286.53
2019-04-30T09:36:07.000Z,286.64
2019-04-30T09:38:10.000Z,286.61
2019-04-30T09:39:32.000Z,286.72
2019-04-30T09:41:33.000Z,286.8
2019-04-30T09:42:55.000Z,286.87
2019-04-30T09:44:58.000Z,286.81
2019-04-30T09:46:22.000Z,286.81
2019-04-30T09:48:30.000Z,286.84
2019-04-30T09:49:53.000Z,286.99
2019-04-30T09:51:54.000Z,287.02
2019-04-30T09:53:17.000Z,287.13
2019-04-30T09:55:21.000Z,287.13
2019-04-30T09:56:45.000Z,287.22
2019-04-30T09:58:49.000Z,287.24
2019-04-30T10:00:11.000Z,287.2
2019-04-30T10:02:13.000Z,287.3
2019-04-30T10:03:40.000Z,287.29
2019-04-30T10:05:43.000Z,287.33
2019-04-30T10:07:06.000Z,287.44
2019-04-30T10:09:13.000Z,287.44
2019-04-30T10:10:41.000Z,287.55
2019-04-30T10:12:42.000Z,287.57
2019-04-30T10:14:09.000Z,287.68
2019-04-30T10:16:12.000Z,287.69
2019-04-30T10:17:36.000Z,287.68
2019-04-30T10:19:38.000Z,287.75
2019-04-30T10:21:02.000Z,287.82
2019-04-30T10:23:04.000Z,287.88
2019-04-30T10:24:31.000Z,287.91
2019-04-30T10:26:34.000Z,287.86
2019-04-30T10:28:01.000Z,287.92
2019-04-30T10:30:06.000Z,288.06
2019-04-30T10:31:32.000Z,287.94
2019-04-30T10:33:37.000Z,288.04
2019-04-30T10:35:05.000Z,288.13
2019-04-30T10:37:13.000Z,288.27
2019-04-30T10:38:37.000Z,288.39
2019-04-30T10:40:41.000Z,288.41
2019-04-30T10:42:06.000Z,288.26
2019-04-30T10:44:09.000Z,288.36
2019-04-30T10:45:34.000Z,288.49
2019-04-30T10:47:37.000Z,288.53
2019-04-30T10:49:01.000Z,288.68
2019-04-30T10:51:04.000Z,288.83
2019-04-30T10:52:30.000Z,288.92
2019-04-30T10:54:31.000Z,288.95
2019-04-30T10:55:55.000Z,288.99
2019-04-30T10:58:01.000Z,288.88
2019-04-30T10:59:25.000Z,288.98
2019-04-30T11:01:33.000Z,289.21
2019-04-30T11:02:58.000Z,289.29
2019-04-30T11:05:04.000Z,289.26
2019-04-30T11:06:29.000Z,289.29
2019-04-30T11:08:37.000Z,289.31
2019-04-30T11:10:07.000Z,289.44
2019-04-30T11:12:13.000Z,289.44
2019-04-30T11:13:37.000Z,289.51
2019-04-30T11:15:43.000Z,289.59
2019-04-30T11:17:08.000Z,289.6
2019-04-30T11:19:15.000Z,289.63
2019-04-30T11:20:41.000Z,289.59
2019-04-30T11:22:49.000Z,289.59
2019-04-30T11:24:19.000Z,289.56
2019-04-30T11:26:27.000Z,289.81
2019-04-30T11:27:57.000Z,289.92
2019-04-30T11:30:05.000Z,289.71
2019-04-30T11:31:48.000Z,289.89
2019-04-30T11:33:59.000Z,290.07
2019-04-30T11:35:28.000Z,290.06
2019-04-30T11:37:33.000Z,289.98
2019-04-30T11:38:58.000Z,290.17
2019-04-30T11:41:06.000Z,290.21
2019-04-30T11:42:35.000Z,290.16
2019-04-30T11:44:42.000Z,290.03
2019-04-30T11:46:14.000Z,289.88
2019-04-30T11:48:21.000Z,290.21
2019-04-30T11:49:54.000Z,290.45
2019-04-30T11:52:08.000Z,290.5
2019-04-30T11:53:37.000Z,290.61
2019-04-30T11:55:50.000Z,290.71
2019-04-30T11:57:18.000Z,290.72
2019-04-30T11:59:31.000Z,290.68
2019-04-30T12:01:01.000Z,290.71
2019-04-30T12:03:09.000Z,290.79
2019-04-30T12:04:40.000Z,290.82
2019-04-30T12:08:22.000Z,290.86
2019-04-30T12:10:29.000Z,290.92
2019-04-30T12:16:22.000Z,291.18
2019-04-30T12:17:44.000Z,291.33
2019-04-30T12:19:45.000Z,291.34
2019-04-30T12:21:07.000Z,291.31
2019-04-30T12:23:08.000Z,291.43
2019-04-30T12:24:33.000Z,291.51
2019-04-30T12:26:34.000Z,291.53
2019-04-30T12:27:56.000Z,291.5
2019-04-30T12:29:57.000Z,291.45
2019-04-30T12:31:21.000Z,291.5
2019-04-30T12:33:24.000Z,291.53
2019-04-30T12:34:46.000Z,291.49
2019-04-30T12:36:47.000Z,291.46
2019-04-30T12:38:12.000Z,291.51
2019-04-30T12:40:13.000Z,291.57
2019-04-30T12:41:50.000Z,291.5
2019-04-30T12:43:51.000Z,291.48
2019-04-30T12:45:13.000Z,291.46
2019-04-30T12:47:14.000Z,291.56
2019-04-30T12:48:38.000Z,291.81
2019-04-30T12:50:40.000Z,291.91
2019-04-30T12:52:03.000Z,291.87
2019-04-30T12:54:05.000Z,291.74
2019-04-30T12:55:27.000Z,291.81
2019-04-30T12:57:32.000Z,291.81
2019-04-30T12:58:54.000Z,291.79
2019-04-30T13:00:56.000Z,291.82
2019-04-30T13:02:18.000Z,291.72
2019-04-30T13:04:20.000Z,291.83
2019-04-30T13:05:42.000Z,291.96
2019-04-30T13:07:45.000Z,292.08
2019-04-30T13:09:08.000Z,292.29
2019-04-30T13:11:13.000Z,292.36
2019-04-30T13:12:37.000Z,292.34
2019-04-30T13:14:41.000Z,292.37
2019-04-30T13:16:16.000Z,292.43
2019-04-30T13:18:19.000Z,292.27
2019-04-30T13:19:42.000Z,292.36
2019-04-30T13:21:44.000Z,292.33
2019-04-30T13:23:06.000Z,292.49
2019-04-30T13:25:09.000Z,292.25
2019-04-30T13:26:31.000Z,292.41
2019-04-30T13:28:32.000Z,292.66
2019-04-30T13:29:54.000Z,292.91
2019-04-30T13:31:57.000Z,292.81
2019-04-30T13:33:22.000Z,292.84
2019-04-30T13:35:25.000Z,292.55
2019-04-30T13:36:48.000Z,292.32
2019-04-30T13:38:50.000Z,292.39
2019-04-30T13:40:14.000Z,292.62
2019-04-30T13:42:15.000Z,292.78
2019-04-30T13:43:43.000Z,292.78
2019-04-30T13:45:44.000Z,292.54
2019-04-30T13:47:07.000Z,292.77
2019-04-30T13:49:12.000Z,292.85
2019-04-30T13:50:34.000Z,292.82
2019-04-30T13:52:35.000Z,293.11
2019-04-30T13:53:57.000Z,293.27
2019-04-30T13:55:59.000Z,293.52
2019-04-30T13:57:23.000Z,293.41
2019-04-30T13:59:27.000Z,292.73
2019-04-30T14:00:53.000Z,292.61
2019-04-30T14:02:56.000Z,292.52
2019-04-30T14:04:18.000Z,292.86
2019-04-30T14:06:23.000Z,293.12
2019-04-30T14:07:49.000Z,293.11
2019-04-30T14:09:52.000Z,293.03
2019-04-30T14:11:16.000Z,292.88
2019-04-30T14:13:22.000Z,293.03
2019-04-30T14:14:46.000Z,292.8
2019-04-30T14:16:52.000Z,292.39
2019-04-30T14:18:14.000Z,292
2019-04-30T14:20:30.000Z,291.85
2019-04-30T14:21:53.000Z,291.74
2019-04-30T14:23:57.000Z,291.6
2019-04-30T14:25:21.000Z,292.1
2019-04-30T14:27:26.000Z,292.74
2019-04-30T14:28:55.000Z,293.28
2019-04-30T14:30:58.000Z,293.42
2019-04-30T14:32:22.000Z,292.96
2019-04-30T14:34:25.000Z,292.47
2019-04-30T14:35:50.000Z,291.95
2019-04-30T14:37:59.000Z,291.91
2019-04-30T14:39:26.000Z,292.33
2019-04-30T14:41:29.000Z,292.77
2019-04-30T14:42:56.000Z,292.75
2019-04-30T14:45:03.000Z,292.2
2019-04-30T14:46:30.000Z,291.96
2019-04-30T14:48:32.000Z,291.91
2019-04-30T14:49:57.000Z,291.83
2019-04-30T14:52:17.000Z,291.9
2019-04-30T14:53:44.000Z,292.33
2019-04-30T14:55:53.000Z,292.73
2019-04-30T14:57:17.000Z,292.25
2019-04-30T14:59:19.000Z,292.07
2019-04-30T15:00:46.000Z,291.79
2019-04-30T15:02:51.000Z,291.67
2019-04-30T15:04:13.000Z,291.49
2019-04-30T15:06:18.000Z,291.35
2019-04-30T15:07:43.000Z,291.13
2019-04-30T15:09:51.000Z,291
2019-04-30T15:11:14.000Z,291.09
2019-04-30T15:13:22.000Z,291.52
2019-04-30T15:14:50.000Z,292.23
2019-04-30T15:16:56.000Z,292.12
2019-04-30T15:18:21.000Z,291.72
2019-04-30T15:20:30.000Z,291.56
2019-04-30T15:21:56.000Z,291.47
2019-04-30T15:24:00.000Z,291.5
2019-04-30T15:25:24.000Z,291.27
2019-04-30T15:27:34.000Z,291.14
2019-04-30T15:29:05.000Z,291.04
2019-04-30T15:31:19.000Z,290.9
2019-04-30T15:32:51.000Z,290.67
2019-04-30T15:34:55.000Z,290.52
2019-04-30T15:36:21.000Z,290.39
2019-04-30T15:38:25.000Z,290.26
2019-04-30T15:39:53.000Z,290.29
2019-04-30T15:41:59.000Z,290.59
2019-04-30T15:43:29.000Z,290.77
2019-04-30T15:45:34.000Z,291.21
2019-04-30T15:47:03.000Z,291.82
2019-04-30T15:49:18.000Z,292.16
2019-04-30T15:50:46.000Z,292.3
2019-04-30T15:52:53.000Z,291.86
2019-04-30T15:54:19.000Z,291.25
2019-04-30T15:56:25.000Z,291.29
2019-04-30T15:58:03.000Z,291.19
2019-04-30T16:00:09.000Z,291.09
2019-04-30T16:01:42.000Z,291.07
2019-04-30T16:03:49.000Z,290.88
2019-04-30T16:05:20.000Z,290.97
2019-04-30T16:07:28.000Z,291.37
2019-04-30T16:08:58.000Z,291.77
2019-04-30T16:11:01.000Z,291.75
2019-04-30T16:12:30.000Z,291.97
2019-04-30T16:14:38.000Z,292.07
2019-04-30T16:16:04.000Z,292.24
2019-04-30T16:18:11.000Z,292.28
2019-04-30T16:19:41.000Z,291.98
2019-04-30T16:21:50.000Z,292.1
2019-04-30T16:23:18.000Z,292.32
2019-04-30T16:25:33.000Z,291.72
2019-04-30T16:27:02.000Z,291.47
2019-04-30T16:29:06.000Z,291.67
2019-04-30T16:30:38.000Z,291.83
2019-04-30T16:32:46.000Z,291.38
2019-04-30T16:34:22.000Z,291.16
2019-04-30T16:36:29.000Z,290.98
2019-04-30T16:37:59.000Z,290.99
2019-04-30T16:40:11.000Z,290.83
2019-04-30T16:41:39.000Z,290.59
2019-04-30T16:43:53.000Z,290.97
2019-04-30T16:45:24.000Z,291.09
2019-04-30T16:47:36.000Z,290.67
2019-04-30T16:49:06.000Z,290.37
2019-04-30T16:51:11.000Z,290.52
2019-04-30T16:52:37.000Z,290.31
2019-04-30T16:54:49.000Z,290.19
2019-04-30T16:56:22.000Z,290.09
2019-04-30T16:58:31.000Z,290
2019-04-30T17:00:03.000Z,290.02
2019-04-30T17:02:12.000Z,290.24
2019-04-30T17:03:43.000Z,290.26
2019-04-30T17:11:09.000Z,289.95
2019-04-30T17:12:31.000Z,289.88
2019-04-30T17:14:32.000Z,289.82
2019-04-30T17:15:54.000Z,289.87
2019-04-30T17:17:54.000Z,289.91
2019-04-30T17:19:16.000Z,289.89
2019-04-30T17:21:19.000Z,289.82
2019-04-30T17:22:41.000Z,289.73
2019-04-30T17:24:42.000Z,289.71
2019-04-30T17:26:04.000Z,289.61
2019-04-30T17:28:07.000Z,289.59
2019-04-30T17:29:31.000Z,289.53
2019-04-30T17:31:33.000Z,289.53
2019-04-30T17:32:55.000Z,289.56
2019-04-30T17:34:56.000Z,289.48
2019-04-30T17:36:20.000Z,289.31
2019-04-30T17:38:21.000Z,289.28
2019-04-30T17:39:44.000Z,289.23
2019-04-30T17:41:45.000Z,289.25
2019-04-30T17:43:07.000Z,289.14
2019-04-30T17:45:08.000Z,289.05
2019-04-30T17:46:31.000Z,288.98
2019-04-30T17:48:33.000Z,288.94
2019-04-30T17:49:55.000Z,288.83
2019-04-30T17:51:56.000Z,288.8
2019-04-30T17:53:18.000Z,288.72
2019-04-30T17:55:19.000Z,288.61
2019-04-30T17:56:41.000Z,288.4
2019-04-30T17:58:44.000Z,288.35
2019-04-30T18:00:06.000Z,288.37
2019-04-30T18:02:20.000Z,288.34
2019-04-30T18:03:42.000Z,288.27
2019-04-30T18:05:42.000Z,288.14
2019-04-30T18:07:05.000Z,288.05
2019-04-30T18:09:06.000Z,287.99
2019-04-30T18:10:28.000Z,287.97
2019-04-30T18:12:30.000Z,287.95
2019-04-30T18:13:53.000Z,287.85
2019-04-30T18:15:56.000Z,287.91
2019-04-30T18:17:18.000Z,287.83
2019-04-30T18:19:21.000Z,287.71
2019-04-30T18:20:43.000Z,287.69
2019-04-30T18:22:44.000Z,287.62
2019-04-30T18:24:06.000Z,287.52
2019-04-30T18:26:09.000Z,287.49
2019-04-30T18:27:31.000Z,287.44
2019-04-30T18:29:48.000Z,287.44
2019-04-30T18:31:13.000Z,287.38
2019-04-30T18:33:17.000Z,287.34
2019-04-30T18:34:40.000Z,287.1
2019-04-30T18:36:41.000Z,286.97
2019-04-30T18:38:03.000Z,286.95
2019-04-30T18:40:04.000Z,286.85
2019-04-30T18:41:28.000Z,286.76
2019-04-30T18:43:32.000Z,286.75
2019-04-30T18:44:55.000Z,286.75
2019-04-30T18:46:58.000Z,286.62
2019-04-30T18:48:20.000Z,286.56
2019-04-30T18:50:23.000Z,286.4
2019-04-30T18:51:46.000Z,286.36
2019-04-30T18:53:50.000Z,286.42
2019-04-30T18:55:13.000Z,286.32
2019-04-30T18:57:15.000Z,286.29
2019-04-30T18:58:41.000Z,286.22
2019-04-30T19:00:44.000Z,286.15
2019-04-30T19:02:09.000Z,286.11
2019-04-30T19:04:14.000Z,286.02
2019-04-30T19:05:36.000Z,285.94
2019-04-30T19:07:42.000Z,285.96
2019-04-30T19:09:05.000Z,285.91
2019-04-30T19:11:10.000Z,285.87
2019-04-30T19:12:35.000Z,285.88
2019-04-30T19:14:39.000Z,285.79
2019-04-30T19:16:03.000Z,285.74
2019-04-30T19:18:25.000Z,285.69
2019-04-30T19:19:48.000Z,285.65
2019-04-30T19:21:56.000Z,285.66
2019-04-30T19:23:22.000Z,285.59
2019-04-30T19:25:27.000Z,285.57
2019-04-30T19:26:57.000Z,285.6
2019-04-30T19:29:03.000Z,285.66
2019-04-30T19:30:25.000Z,285.64
2019-04-30T19:32:27.000Z,285.54
2019-04-30T19:33:54.000Z,285.43
2019-04-30T19:35:56.000Z,285.31
2019-04-30T19:37:22.000Z,285.28
2019-04-30T19:39:26.000Z,285.24
2019-04-30T19:40:51.000Z,285.23
2019-04-30T19:42:53.000Z,285.18
2019-04-30T19:44:19.000Z,285.08
2019-04-30T19:46:23.000Z,285.05
2019-04-30T19:47:48.000Z,285
2019-04-30T19:49:52.000Z,285.01
2019-04-30T19:51:18.000Z,284.96
2019-04-30T19:53:22.000Z,284.9
2019-04-30T19:54:47.000Z,284.91
2019-04-30T19:56:55.000Z,284.76
2019-04-30T19:58:26.000Z,284.69
2019-04-30T20:00:52.000Z,284.58
2019-04-30T20:02:14.000Z,284.57
2019-04-30T20:04:16.000Z,284.3
2019-04-30T20:05:45.000Z,283.74
2019-04-30T20:07:54.000Z,283.41
2019-04-30T20:09:17.000Z,283.31
2019-04-30T20:11:24.000Z,283.13
2019-04-30T20:12:50.000Z,283.13
2019-04-30T20:14:57.000Z,283.22
2019-04-30T20:16:21.000Z,283.16
2019-04-30T20:18:25.000Z,283.16
2019-04-30T20:19:51.000Z,283.14
2019-04-30T20:21:52.000Z,283.08
2019-04-30T20:23:21.000Z,283.07
2019-04-30T20:25:29.000Z,283.05
2019-04-30T20:26:59.000Z,283.03
2019-04-30T20:29:11.000Z,283.12
2019-04-30T20:30:36.000Z,283.06
2019-04-30T20:32:45.000Z,283.02
2019-04-30T20:34:12.000Z,283.1
2019-04-30T20:36:21.000Z,282.93
2019-04-30T20:37:47.000Z,282.61
2019-04-30T20:39:55.000Z,282.47
2019-04-30T20:41:19.000Z,282.41
2019-04-30T20:43:27.000Z,282.42
2019-04-30T20:44:54.000Z,282.27
2019-04-30T20:47:03.000Z,282.17
2019-04-30T20:48:28.000Z,282.15
2019-04-30T20:50:38.000Z,282.09
2019-04-30T20:52:07.000Z,282.02
2019-04-30T20:54:17.000Z,281.98
2019-04-30T20:55:49.000Z,281.92
2019-04-30T20:57:56.000Z,281.9
2019-04-30T20:59:27.000Z,281.86
2019-04-30T21:01:31.000Z,281.86
2019-04-30T21:02:59.000Z,281.82
2019-04-30T21:05:08.000Z,281.86
2019-04-30T21:06:40.000Z,281.78
2019-04-30T21:10:22.000Z,281.75
2019-04-30T21:16:24.000Z,281.69
2019-04-30T21:17:46.000Z,281.68
2019-04-30T21:19:47.000Z,281.59
2019-04-30T21:21:09.000Z,281.51
2019-04-30T21:23:10.000Z,281.47
2019-04-30T21:24:32.000Z,281.42
2019-04-30T21:26:32.000Z,281.35
2019-04-30T21:27:54.000Z,281.35
2019-04-30T21:29:55.000Z,281.28
2019-04-30T21:31:17.000Z,281.17
2019-04-30T21:33:18.000Z,281.23
2019-04-30T21:34:42.000Z,281.25
2019-04-30T21:36:43.000Z,281.14
2019-04-30T21:38:05.000Z,281.03
2019-04-30T21:40:06.000Z,280.93
2019-04-30T21:41:28.000Z,280.85
2019-04-30T21:43:30.000Z,280.76
2019-04-30T21:44:52.000Z,280.7
2019-04-30T21:46:53.000Z,280.67
2019-04-30T21:48:15.000Z,280.68
2019-04-30T21:50:17.000Z,280.71
2019-04-30T21:51:41.000Z,280.69
2019-04-30T21:53:42.000Z,280.64
2019-04-30T21:55:04.000Z,280.66
2019-04-30T21:57:05.000Z,280.68
2019-04-30T21:58:27.000Z,280.66
2019-04-30T22:00:30.000Z,280.61
2019-04-30T22:01:53.000Z,280.63
2019-04-30T22:03:54.000Z,280.57
2019-04-30T22:05:16.000Z,280.53
2019-04-30T22:07:17.000Z,280.5
2019-04-30T22:08:42.000Z,280.41
2019-04-30T22:10:44.000Z,280.35
2019-04-30T22:12:06.000Z,280.31
2019-04-30T22:14:09.000Z,280.28
2019-04-30T22:15:31.000Z,280.22
2019-04-30T22:17:32.000Z,280.18
2019-04-30T22:18:54.000Z,280.19
2019-04-30T22:20:57.000Z,280.2
2019-04-30T22:22:19.000Z,280.16
2019-04-30T22:24:23.000Z,280.16
2019-04-30T22:25:45.000Z,280.09
2019-04-30T22:27:47.000Z,279.97
2019-04-30T22:29:10.000Z,279.92
2019-04-30T22:31:12.000Z,279.88